Terminal Aerodrome Forecast
Issued by NWS Blacksburg, VA

Home | Current Version | Previous Version | Text Only | Print | Product List | Glossary On
Versions: 1 2 3 4 5 6 7 8 9 10 11 12 13 14 15 16 17 18 19 20 21 22 23 24 25 26 27 28 29 30 31 32 33 34
000
FTUS41 KRNK 212128 AAA
TAFDAN
TAF AMD
KDAN 212128Z 2121/2218 00000KT P6SM VCSH OVC003
     FM220200 00000KT 4SM -SHRA SCT003 OVC008
     FM220400 00000KT 6SM BR VCSH SCT003 OVC008
     FM220700 00000KT 1SM BR OVC008
     FM221200 00000KT P6SM VCSH OVC008
     FM221500 09005KT 6SM -SHRA OVC008
     FM221600 10006KT 3SM RA OVC008=

USA.gov is the U.S. government's official web portal to all federal, state and local government web resources and services.